createdAt,value
2022-10-09T00:00:22.729Z,102438.44
2022-10-09T00:02:50.795Z,102444.47
2022-10-09T00:05:18.514Z,102436.59
2022-10-09T00:07:45.989Z,102449.00
2022-10-09T00:10:13.428Z,102444.59
2022-10-09T00:12:43.473Z,102446.38
2022-10-09T00:15:11.710Z,102450.91
2022-10-09T00:17:39.643Z,102440.72
2022-10-09T00:20:07.835Z,102439.34
2022-10-09T00:22:35.705Z,102442.50
2022-10-09T00:25:03.316Z,102440.47
2022-10-09T00:27:30.758Z,102442.13
2022-10-09T00:29:59.544Z,102446.25
2022-10-09T00:32:26.946Z,102445.94
2022-10-09T00:34:54.414Z,102444.28
2022-10-09T00:37:21.857Z,102438.25
2022-10-09T00:39:49.300Z,102443.31
2022-10-09T00:42:16.766Z,102437.56
2022-10-09T00:44:48.082Z,102434.13
2022-10-09T00:47:19.580Z,102434.25
2022-10-09T00:49:48.215Z,102419.66
2022-10-09T00:52:15.996Z,102435.78
2022-10-09T00:54:44.106Z,102439.47
2022-10-09T00:57:12.753Z,102443.41
2022-10-09T00:59:40.853Z,102442.81
2022-10-09T01:02:08.503Z,102442.25
2022-10-09T01:04:37.447Z,102444.28
2022-10-09T01:07:11.416Z,102447.25
2022-10-09T01:09:41.709Z,102444.34
2022-10-09T01:12:14.549Z,102440.34
2022-10-09T01:14:48.129Z,102443.06
2022-10-09T01:17:19.366Z,102440.72
2022-10-09T01:19:56.791Z,102435.19
2022-10-09T01:22:32.414Z,102440.06
2022-10-09T01:25:02.916Z,102426.84
2022-10-09T01:27:33.172Z,102431.97
2022-10-09T01:30:01.656Z,102425.44
2022-10-09T01:32:31.865Z,102420.81
2022-10-09T01:34:59.554Z,102421.38
2022-10-09T01:37:28.553Z,102417.69
2022-10-09T01:39:56.119Z,102415.31
2022-10-09T01:42:24.964Z,102403.38
2022-10-09T01:44:53.794Z,102411.78
2022-10-09T01:47:22.556Z,102408.13
2022-10-09T01:49:54.545Z,102410.25
2022-10-09T01:52:26.591Z,102410.69
2022-10-09T01:55:02.718Z,102401.25
2022-10-09T01:57:33.609Z,102400.81
2022-10-09T02:00:04.987Z,102393.13
2022-10-09T02:02:32.683Z,102385.56
2022-10-09T02:05:00.814Z,102398.34
2022-10-09T02:07:29.462Z,102389.31
2022-10-09T02:09:57.172Z,102382.81
2022-10-09T02:12:25.737Z,102386.56
2022-10-09T02:14:53.202Z,102382.78
2022-10-09T02:17:27.358Z,102383.84
2022-10-09T02:19:56.574Z,102382.91
2022-10-09T02:22:26.526Z,102378.19
2022-10-09T02:24:54.576Z,102374.63
2022-10-09T02:27:22.602Z,102372.63
2022-10-09T02:29:50.687Z,102371.09
2022-10-09T02:32:18.475Z,102371.91
2022-10-09T02:34:47.358Z,102366.13
2022-10-09T02:37:15.215Z,102364.63
2022-10-09T02:39:43.700Z,102366.38
2022-10-09T02:42:11.194Z,102373.25
2022-10-09T02:44:40.646Z,102371.16
2022-10-09T02:47:08.413Z,102375.72
2022-10-09T02:49:36.508Z,102380.69
2022-10-09T02:52:05.407Z,102378.47
2022-10-09T02:54:32.837Z,102372.91
2022-10-09T02:57:00.291Z,102373.25
2022-10-09T02:59:27.745Z,102376.56
2022-10-09T03:01:55.814Z,102369.13
2022-10-09T03:04:23.361Z,102372.91
2022-10-09T03:06:50.816Z,102375.50
2022-10-09T03:09:19.622Z,102371.00
2022-10-09T03:11:47.136Z,102364.88
2022-10-09T03:14:14.591Z,102362.28
2022-10-09T03:16:42.124Z,102363.81
2022-10-09T03:19:09.583Z,102362.16
2022-10-09T03:21:37.041Z,102276.84
2022-10-09T03:24:04.584Z,102362.41
2022-10-09T03:26:33.364Z,102360.78
2022-10-09T03:29:00.823Z,102357.34
2022-10-09T03:34:15.981Z,102356.50
2022-10-09T03:36:43.505Z,102356.63
2022-10-09T03:39:11.230Z,102361.22
2022-10-09T03:41:40.270Z,102353.66
2022-10-09T03:44:07.835Z,102358.25
2022-10-09T03:46:35.500Z,102352.72
2022-10-09T03:49:02.997Z,102352.50
2022-10-09T03:51:30.650Z,102355.66
2022-10-09T03:53:58.347Z,102364.16
2022-10-09T03:56:25.803Z,102356.03
2022-10-09T03:58:54.601Z,102365.09
2022-10-09T04:01:22.069Z,102362.28
2022-10-09T04:03:49.984Z,102348.81
2022-10-09T04:06:17.457Z,102363.34
2022-10-09T04:08:44.894Z,102366.41
2022-10-09T04:11:12.353Z,102363.66
2022-10-09T04:13:41.986Z,102362.38
2022-10-09T04:16:12.680Z,102365.22
2022-10-09T04:18:40.775Z,102369.22
2022-10-09T04:21:08.656Z,102365.09
2022-10-09T04:23:36.149Z,102358.97
2022-10-09T04:26:03.654Z,102367.47
2022-10-09T04:28:31.661Z,102365.69
2022-10-09T04:30:59.504Z,102364.88
2022-10-09T04:33:28.270Z,102368.28
2022-10-09T04:35:56.210Z,102365.31
2022-10-09T04:38:24.380Z,102358.47
2022-10-09T04:40:58.486Z,102349.63
2022-10-09T04:43:26.096Z,102348.06
2022-10-09T04:45:53.572Z,102340.91
2022-10-09T04:48:21.151Z,102349.38
2022-10-09T04:50:50.028Z,102348.34
2022-10-09T04:53:17.501Z,102338.63
2022-10-09T04:55:45.546Z,102335.81
2022-10-09T04:58:13.567Z,102342.56
2022-10-09T05:00:42.004Z,102342.66
2022-10-09T05:03:09.841Z,102346.19
2022-10-09T05:05:37.491Z,102337.47
2022-10-09T05:08:06.367Z,102336.53
2022-10-09T05:10:34.063Z,102337.97
2022-10-09T05:13:02.065Z,102338.91
2022-10-09T05:15:29.631Z,102337.78
2022-10-09T05:17:57.118Z,102336.97
2022-10-09T05:20:24.623Z,102334.97
2022-10-09T05:22:52.637Z,102338.28
2022-10-09T05:25:21.906Z,102342.66
2022-10-09T05:27:49.555Z,102332.59
2022-10-09T05:30:16.960Z,102331.66
2022-10-09T05:32:44.411Z,102332.50
2022-10-09T05:35:11.834Z,102332.72
2022-10-09T05:37:39.700Z,102342.97
2022-10-09T05:40:07.767Z,102342.41
2022-10-09T05:42:36.588Z,102339.22
2022-10-09T05:45:04.183Z,102333.91
2022-10-09T05:47:32.046Z,102339.69
2022-10-09T05:49:59.539Z,102340.03
2022-10-09T05:52:27.090Z,102342.63
2022-10-09T05:54:56.792Z,102347.00
2022-10-09T05:57:24.261Z,102332.69
2022-10-09T05:59:53.223Z,102340.38
2022-10-09T06:02:20.807Z,102346.38
2022-10-09T06:04:48.268Z,102342.25
2022-10-09T06:07:15.722Z,102348.16
2022-10-09T06:09:43.232Z,102346.50
2022-10-09T06:12:10.631Z,102348.97
2022-10-09T06:14:38.287Z,102349.69
2022-10-09T06:17:07.256Z,102348.88
2022-10-09T06:19:34.681Z,102353.00
2022-10-09T06:22:02.171Z,102352.19
2022-10-09T06:24:29.746Z,102357.16
2022-10-09T06:26:57.618Z,102353.47
2022-10-09T06:29:25.662Z,102355.00
2022-10-09T06:31:53.129Z,102355.00
2022-10-09T06:34:22.319Z,102353.13
2022-10-09T06:36:51.579Z,102358.72
2022-10-09T06:39:19.313Z,102346.19
2022-10-09T06:41:46.758Z,102349.16
2022-10-09T06:44:17.170Z,102360.72
2022-10-09T06:46:45.920Z,102348.09
2022-10-09T06:49:13.459Z,102353.78
2022-10-09T06:51:42.413Z,102363.44
2022-10-09T06:54:11.986Z,102347.66
2022-10-09T06:56:40.112Z,102350.97
2022-10-09T06:59:08.611Z,102349.31
2022-10-09T07:01:36.988Z,102361.22
2022-10-09T07:04:06.948Z,102354.03
2022-10-09T07:06:35.579Z,102345.75
2022-10-09T07:09:06.774Z,102344.94
2022-10-09T07:11:35.305Z,102345.66
2022-10-09T07:14:03.879Z,102348.00
2022-10-09T07:16:32.281Z,102343.16
2022-10-09T07:19:01.229Z,102348.59
2022-10-09T07:21:28.695Z,102348.47
2022-10-09T07:23:56.302Z,102355.88
2022-10-09T07:26:26.600Z,102357.19
2022-10-09T07:28:54.124Z,102358.47
2022-10-09T07:31:22.905Z,102358.13
2022-10-09T07:33:50.720Z,102352.81
2022-10-09T07:36:18.612Z,102355.00
2022-10-09T07:38:50.158Z,102357.50
2022-10-09T07:41:18.775Z,102355.34
2022-10-09T07:43:48.298Z,102360.28
2022-10-09T07:46:16.876Z,102357.69
2022-10-09T07:48:47.111Z,102355.88
2022-10-09T07:51:16.330Z,102354.88
2022-10-09T07:53:43.814Z,102352.47
2022-10-09T07:56:14.934Z,102352.00
2022-10-09T07:58:42.365Z,102351.72
2022-10-09T08:01:13.997Z,102351.53
2022-10-09T08:03:43.762Z,102349.34
2022-10-09T08:06:11.295Z,102344.34
2022-10-09T08:08:39.066Z,102340.13
2022-10-09T08:11:09.787Z,102343.03
2022-10-09T08:13:37.276Z,102345.72
2022-10-09T08:16:05.196Z,102329.16
2022-10-09T08:18:34.823Z,102338.91
2022-10-09T08:21:03.221Z,102342.53
2022-10-09T08:23:30.710Z,102334.19
2022-10-09T08:25:58.136Z,102331.09
2022-10-09T08:28:25.707Z,102338.09
2022-10-09T08:30:53.287Z,102339.50
2022-10-09T08:33:22.382Z,102334.00
2022-10-09T08:35:51.877Z,102338.28
2022-10-09T08:38:45.081Z,102327.44
2022-10-09T08:41:09.401Z,102334.44
2022-10-09T08:43:39.819Z,102325.38
2022-10-09T08:46:11.773Z,102332.38
2022-10-09T08:48:42.191Z,102311.34
2022-10-09T08:51:15.657Z,102321.13
2022-10-09T08:53:46.134Z,102315.22
2022-10-09T08:56:15.416Z,102307.91
2022-10-09T08:58:43.921Z,102309.78
2022-10-09T09:01:16.639Z,102311.13
2022-10-09T09:03:51.450Z,102307.81
2022-10-09T09:06:23.524Z,102308.34
2022-10-09T09:08:54.630Z,102297.06
2022-10-09T09:11:29.157Z,102302.25
2022-10-09T09:14:02.576Z,102304.41
2022-10-09T09:16:37.767Z,102293.59
2022-10-09T09:19:10.891Z,102293.84
2022-10-09T09:21:45.908Z,102291.91
2022-10-09T09:24:15.284Z,102298.41
2022-10-09T09:26:44.400Z,102289.16
2022-10-09T09:29:14.947Z,102292.53
2022-10-09T09:31:44.039Z,102295.25
2022-10-09T09:34:14.075Z,102289.94
2022-10-09T09:36:45.711Z,102292.03
2022-10-09T09:42:02.971Z,102289.00
2022-10-09T09:44:31.853Z,102278.78
2022-10-09T09:46:59.546Z,102279.25
2022-10-09T09:49:29.282Z,102286.31
2022-10-09T09:51:59.337Z,102278.16
2022-10-09T09:54:27.769Z,102280.06
2022-10-09T09:57:18.209Z,102266.38
2022-10-09T09:59:45.735Z,102262.53
2022-10-09T10:02:15.630Z,102265.31
2022-10-09T10:04:53.268Z,102263.72
2022-10-09T10:07:34.952Z,102262.91
2022-10-09T10:10:03.188Z,102253.41
2022-10-09T10:12:30.819Z,102247.56
2022-10-09T10:14:58.391Z,102243.50
2022-10-09T10:17:28.155Z,102246.94
2022-10-09T10:19:55.757Z,102253.22
2022-10-09T10:22:24.514Z,102244.19
2022-10-09T10:24:54.469Z,102240.41
2022-10-09T10:27:24.972Z,102244.38
2022-10-09T10:29:56.150Z,102243.84
2022-10-09T10:32:27.003Z,102237.47
2022-10-09T10:34:56.487Z,102232.69
2022-10-09T10:37:33.156Z,102233.13
2022-10-09T10:40:04.003Z,102236.41
2022-10-09T10:42:37.075Z,102233.25
2022-10-09T10:45:10.000Z,102235.09
2022-10-09T10:47:40.987Z,102233.03
2022-10-09T10:50:13.460Z,102221.97
2022-10-09T10:52:44.944Z,102223.94
2022-10-09T10:55:22.782Z,102224.53
2022-10-09T10:57:55.653Z,102218.00
2022-10-09T11:00:23.087Z,102150.31
2022-10-09T11:03:03.250Z,102214.56
2022-10-09T11:05:37.156Z,102208.44
2022-10-09T11:08:20.920Z,102202.75
2022-10-09T11:11:00.663Z,102204.38
2022-10-09T11:13:32.217Z,102199.00
2022-10-09T11:16:04.798Z,102193.44
2022-10-09T11:18:41.429Z,102189.19
2022-10-09T11:21:17.120Z,102185.91
2022-10-09T11:23:51.055Z,102179.91
2022-10-09T11:26:23.381Z,102180.00
2022-10-09T11:28:53.431Z,102172.50
2022-10-09T11:31:22.667Z,102163.22
2022-10-09T11:33:52.005Z,102159.94
2022-10-09T11:36:20.763Z,102161.59
2022-10-09T11:38:52.871Z,102158.41
2022-10-09T11:41:21.895Z,102144.19
2022-10-09T11:43:54.457Z,102148.59
2022-10-09T11:46:26.460Z,102148.50
2022-10-09T11:48:57.083Z,102138.88
2022-10-09T11:51:30.366Z,102133.63
2022-10-09T11:53:58.526Z,102138.88
2022-10-09T11:56:32.000Z,102127.19
2022-10-09T11:59:00.427Z,102052.91
2022-10-09T12:01:30.521Z,102108.44
2022-10-09T12:04:03.133Z,102107.75
2022-10-09T12:06:31.323Z,102098.56
2022-10-09T12:08:59.951Z,102094.25
2022-10-09T12:11:29.449Z,102089.31
2022-10-09T12:13:58.311Z,102086.06
2022-10-09T12:16:30.891Z,102074.97
2022-10-09T12:19:00.079Z,102071.38
2022-10-09T12:21:30.041Z,102065.16
2022-10-09T12:23:57.968Z,102069.53
2022-10-09T12:26:25.961Z,102061.59
2022-10-09T12:28:56.116Z,102052.88
2022-10-09T12:31:25.627Z,102048.66
2022-10-09T12:33:55.725Z,102051.34
2022-10-09T12:36:24.700Z,102044.09
2022-10-09T12:38:52.556Z,102038.72
2022-10-09T12:41:22.311Z,102039.09
2022-10-09T12:43:50.724Z,102029.63
2022-10-09T12:46:28.086Z,102018.28
2022-10-09T12:48:55.627Z,102016.34
2022-10-09T12:51:25.681Z,102021.72
2022-10-09T12:53:54.012Z,102004.13
2022-10-09T12:56:23.810Z,102010.13
2022-10-09T12:58:52.088Z,102003.13
2022-10-09T13:01:20.237Z,102001.13
2022-10-09T13:03:55.884Z,101982.00
2022-10-09T13:06:24.483Z,101982.25
2022-10-09T13:08:56.234Z,101990.56
2022-10-09T13:11:26.068Z,101982.66
2022-10-09T13:13:54.611Z,101969.88
2022-10-09T13:16:22.551Z,101967.72
2022-10-09T13:18:57.935Z,101973.03
2022-10-09T13:21:29.106Z,101956.56
2022-10-09T13:24:07.492Z,101946.75
2022-10-09T13:26:34.922Z,101946.03
2022-10-09T13:29:03.679Z,101945.78
2022-10-09T13:31:32.761Z,101938.00
2022-10-09T13:34:01.808Z,101933.69
2022-10-09T13:36:29.276Z,101927.72
2022-10-09T13:38:57.940Z,101923.13
2022-10-09T13:41:25.944Z,101914.69
2022-10-09T13:43:54.279Z,101913.38
2022-10-09T13:46:21.953Z,101911.75
2022-10-09T13:48:49.620Z,101911.69
2022-10-09T13:51:18.427Z,101911.56
2022-10-09T13:53:45.872Z,101911.25
2022-10-09T13:56:13.506Z,101909.06
2022-10-09T13:58:40.930Z,101905.06
2022-10-09T14:01:08.889Z,101905.94
2022-10-09T14:03:36.432Z,101899.63
2022-10-09T14:06:04.569Z,101899.44
2022-10-09T14:08:33.395Z,101902.84
2022-10-09T14:11:01.551Z,101891.63
2022-10-09T14:13:29.768Z,101890.13
2022-10-09T14:15:57.197Z,101885.72
2022-10-09T14:18:24.732Z,101880.94
2022-10-09T14:20:52.364Z,101874.78
2022-10-09T14:23:19.773Z,101870.75
2022-10-09T14:25:48.594Z,101871.97
2022-10-09T14:28:16.205Z,101869.41
2022-10-09T14:30:43.970Z,101860.28
2022-10-09T14:33:12.528Z,101856.63
2022-10-09T14:35:40.450Z,101848.28
2022-10-09T14:38:07.866Z,101840.13
2022-10-09T14:40:37.720Z,101834.25
2022-10-09T14:43:06.519Z,101835.06
2022-10-09T14:45:34.156Z,101835.63
2022-10-09T14:48:01.627Z,101829.34
2022-10-09T14:50:29.162Z,101816.31
2022-10-09T14:52:56.678Z,101823.78
2022-10-09T14:55:24.952Z,101814.78
2022-10-09T14:57:52.367Z,101813.19
2022-10-09T15:00:21.248Z,101810.41
2022-10-09T15:02:48.653Z,101816.06
2022-10-09T15:05:16.154Z,101817.66
2022-10-09T15:07:43.614Z,101809.63
2022-10-09T15:10:12.212Z,101811.25
2022-10-09T15:12:40.467Z,101801.16
2022-10-09T15:15:08.396Z,101802.69
2022-10-09T15:17:37.248Z,101797.75
2022-10-09T15:20:04.881Z,101793.72
2022-10-09T15:22:32.353Z,101790.19
2022-10-09T15:24:59.822Z,101780.09
2022-10-09T15:27:27.279Z,101779.03
2022-10-09T15:29:54.776Z,101773.41
2022-10-09T15:32:22.216Z,101769.75
2022-10-09T15:34:51.190Z,101772.91
2022-10-09T15:37:18.610Z,101773.38
2022-10-09T15:39:46.109Z,101760.69
2022-10-09T15:42:13.553Z,101761.53
2022-10-09T15:44:42.270Z,101761.53
2022-10-09T15:47:09.711Z,101749.00
2022-10-09T15:49:37.153Z,101750.63
2022-10-09T15:52:05.970Z,101738.72
2022-10-09T15:54:33.406Z,101739.44
2022-10-09T15:57:00.840Z,101734.81
2022-10-09T15:59:30.091Z,101739.50
2022-10-09T16:01:57.569Z,101732.06
2022-10-09T16:04:25.029Z,101736.81
2022-10-09T16:06:52.460Z,101723.69
2022-10-09T16:09:21.671Z,101720.56
2022-10-09T16:11:49.420Z,101715.44
2022-10-09T16:14:16.853Z,101720.75
2022-10-09T16:16:44.675Z,101716.56
2022-10-09T16:19:12.167Z,101715.13
2022-10-09T16:21:40.127Z,101710.84
2022-10-09T16:24:07.553Z,101712.19
2022-10-09T16:26:36.422Z,101703.75
2022-10-09T16:29:04.036Z,101703.06
2022-10-09T16:31:34.757Z,101703.59
2022-10-09T16:34:02.328Z,101702.50
2022-10-09T16:36:30.022Z,101698.88
2022-10-09T16:38:58.361Z,101693.63
2022-10-09T16:41:26.197Z,101707.81
2022-10-09T16:43:56.304Z,101703.72
2022-10-09T16:46:24.698Z,101700.59
2022-10-09T16:48:52.649Z,101698.09
2022-10-09T16:51:21.581Z,101696.53
2022-10-09T16:53:50.217Z,101698.13
2022-10-09T16:56:19.865Z,101697.34
2022-10-09T16:58:47.728Z,101709.47
2022-10-09T17:01:19.231Z,101696.50
2022-10-09T17:03:46.935Z,101695.75
2022-10-09T17:06:16.126Z,101690.41
2022-10-09T17:08:44.027Z,101689.13
2022-10-09T17:11:13.043Z,101687.22
2022-10-09T17:13:41.750Z,101694.97
2022-10-09T17:16:14.426Z,101684.25
2022-10-09T17:18:46.244Z,101640.22
2022-10-09T17:21:14.768Z,101682.72
2022-10-09T17:23:42.536Z,101685.19
2022-10-09T17:26:14.061Z,101686.00
2022-10-09T17:28:42.431Z,101684.78
2022-10-09T17:31:11.252Z,101684.19
2022-10-09T17:33:42.729Z,101681.44
2022-10-09T17:36:12.235Z,101677.53
2022-10-09T17:38:41.909Z,101675.72
2022-10-09T17:41:10.607Z,101674.81
2022-10-09T17:43:40.465Z,101675.81
2022-10-09T17:46:08.433Z,101676.03
2022-10-09T17:48:36.148Z,101672.47
2022-10-09T17:51:04.616Z,101673.81
2022-10-09T17:53:33.437Z,101674.66
2022-10-09T17:56:04.068Z,101597.91
2022-10-09T17:58:31.635Z,101668.13
2022-10-09T18:00:59.182Z,101668.66
2022-10-09T18:03:26.690Z,101665.06
2022-10-09T18:05:54.151Z,101656.94
2022-10-09T18:08:22.296Z,101666.91
2022-10-09T18:10:59.122Z,101655.81
2022-10-09T18:13:26.555Z,101655.34
2022-10-09T18:15:54.104Z,101656.84
2022-10-09T18:18:21.644Z,101646.38
2022-10-09T18:20:49.321Z,101647.72
2022-10-09T18:23:21.802Z,101640.66
2022-10-09T18:25:50.060Z,101649.31
2022-10-09T18:28:19.555Z,101639.84
2022-10-09T18:30:47.115Z,101643.44
2022-10-09T18:33:14.551Z,101631.22
2022-10-09T18:35:42.075Z,101636.25
2022-10-09T18:38:10.563Z,101632.69
2022-10-09T18:40:41.885Z,101631.53
2022-10-09T18:43:12.798Z,101636.59
2022-10-09T18:45:45.325Z,101631.03
2022-10-09T18:48:13.089Z,101624.69
2022-10-09T18:50:40.880Z,101548.69
2022-10-09T18:53:08.872Z,101622.53
2022-10-09T18:55:36.431Z,101624.97
2022-10-09T18:58:04.223Z,101622.03
2022-10-09T19:00:31.773Z,101626.59
2022-10-09T19:03:00.571Z,101617.59
2022-10-09T19:05:28.018Z,101618.72
2022-10-09T19:07:56.129Z,101536.03
2022-10-09T19:10:23.591Z,101613.66
2022-10-09T19:12:52.441Z,101610.53
2022-10-09T19:15:20.045Z,101604.84
2022-10-09T19:17:47.608Z,101608.72
2022-10-09T19:20:16.565Z,101605.63
2022-10-09T19:22:44.045Z,101603.50
2022-10-09T19:25:11.899Z,101599.56
2022-10-09T19:27:39.686Z,101596.44
2022-10-09T19:30:07.711Z,101591.56
2022-10-09T19:32:35.420Z,101592.03
2022-10-09T19:35:03.579Z,101589.06
2022-10-09T19:37:32.422Z,101586.28
2022-10-09T19:39:59.850Z,101582.19
2022-10-09T19:42:27.351Z,101586.69
2022-10-09T19:44:54.753Z,101572.34
2022-10-09T19:47:23.830Z,101571.03
2022-10-09T19:49:51.346Z,101565.13
2022-10-09T19:52:19.932Z,101558.59
2022-10-09T19:54:48.767Z,101555.31
2022-10-09T19:57:16.208Z,101552.22
2022-10-09T19:59:43.703Z,101553.34
2022-10-09T20:02:11.796Z,101543.22
2022-10-09T20:04:39.652Z,101543.53
2022-10-09T20:07:12.372Z,101539.47
2022-10-09T20:09:40.727Z,101550.88
2022-10-09T20:12:10.405Z,101538.28
2022-10-09T20:14:37.890Z,101535.78
2022-10-09T20:17:05.354Z,101532.38
2022-10-09T20:19:32.981Z,101529.75
2022-10-09T20:22:00.478Z,101532.06
2022-10-09T20:24:28.099Z,101522.75
2022-10-09T20:26:55.556Z,101510.53
2022-10-09T20:29:26.847Z,101521.63
2022-10-09T20:31:54.684Z,101525.88
2022-10-09T20:34:22.659Z,101522.91
2022-10-09T20:36:50.257Z,101522.75
2022-10-09T20:39:19.477Z,101513.31
2022-10-09T20:41:46.950Z,101520.75
2022-10-09T20:44:14.779Z,101519.31
2022-10-09T20:46:43.600Z,101514.41
2022-10-09T20:49:12.299Z,101510.44
2022-10-09T20:51:40.656Z,101508.28
2022-10-09T20:54:08.641Z,101502.44
2022-10-09T20:56:36.630Z,101501.00
2022-10-09T20:59:04.526Z,101497.88
2022-10-09T21:01:32.101Z,101505.69
2022-10-09T21:04:01.230Z,101496.56
2022-10-09T21:06:30.046Z,101495.91
2022-10-09T21:08:57.778Z,101499.22
2022-10-09T21:11:26.022Z,101491.81
2022-10-09T21:13:53.820Z,101491.88
2022-10-09T21:16:22.492Z,101485.34
2022-10-09T21:18:53.584Z,101477.66
2022-10-09T21:21:22.402Z,101477.16
2022-10-09T21:23:51.406Z,101475.16
2022-10-09T21:26:20.437Z,101479.75
2022-10-09T21:28:51.700Z,101481.88
2022-10-09T21:31:23.340Z,101475.22
2022-10-09T21:33:51.117Z,101475.22
2022-10-09T21:36:23.656Z,101467.69
2022-10-09T21:38:52.523Z,101467.03
2022-10-09T21:41:20.042Z,101462.63
2022-10-09T21:43:47.540Z,101460.53
2022-10-09T21:46:14.974Z,101458.25
2022-10-09T21:48:42.459Z,101382.06
2022-10-09T21:51:09.918Z,101457.59
2022-10-09T21:53:37.495Z,101448.00
2022-10-09T21:56:07.179Z,101454.81
2022-10-09T21:58:34.745Z,101458.25
2022-10-09T22:01:02.580Z,101456.13
2022-10-09T22:03:31.083Z,101448.78
2022-10-09T22:05:58.570Z,101449.59
2022-10-09T22:08:26.535Z,101449.97
2022-10-09T22:10:54.013Z,101450.78
2022-10-09T22:13:22.881Z,101445.72
2022-10-09T22:15:51.452Z,101443.00
2022-10-09T22:18:19.205Z,101439.78
2022-10-09T22:20:48.933Z,101442.03
2022-10-09T22:23:16.672Z,101445.47
2022-10-09T22:25:44.116Z,101444.34
2022-10-09T22:28:11.620Z,101441.38
2022-10-09T22:30:40.780Z,101438.03
2022-10-09T22:33:08.344Z,101432.28
2022-10-09T22:35:35.756Z,101433.09
2022-10-09T22:38:03.501Z,101432.75
2022-10-09T22:40:31.002Z,101432.25
2022-10-09T22:42:58.439Z,101422.50
2022-10-09T22:45:26.060Z,101424.59
2022-10-09T22:47:54.862Z,101425.41
2022-10-09T22:50:22.752Z,101421.84
2022-10-09T22:52:51.180Z,101422.81
2022-10-09T22:55:18.934Z,101415.28
2022-10-09T22:57:46.620Z,101417.53
2022-10-09T23:00:14.812Z,101408.25
2022-10-09T23:02:42.246Z,101414.94
2022-10-09T23:05:11.313Z,101405.81
2022-10-09T23:07:38.933Z,101401.19
2022-10-09T23:10:06.698Z,101404.78
2022-10-09T23:12:34.327Z,101398.94
2022-10-09T23:15:01.875Z,101400.34
2022-10-09T23:17:29.285Z,101390.06
2022-10-09T23:19:56.702Z,101383.22
2022-10-09T23:22:25.568Z,101379.81
2022-10-09T23:24:52.970Z,101383.22
2022-10-09T23:27:20.446Z,101374.59
2022-10-09T23:29:47.976Z,101376.06
2022-10-09T23:32:15.583Z,101376.25
2022-10-09T23:34:43.321Z,101372.16
2022-10-09T23:37:10.788Z,101368.09
2022-10-09T23:39:39.878Z,101376.53
2022-10-09T23:42:07.310Z,101367.28
2022-10-09T23:44:34.746Z,101362.50
2022-10-09T23:47:02.216Z,101367.41
2022-10-09T23:49:29.641Z,101362.88
2022-10-09T23:51:57.120Z,101363.03
2022-10-09T23:54:24.557Z,101357.69
2022-10-09T23:56:53.379Z,101361.72
2022-10-09T23:59:20.841Z,101355.38
